Time;durP1;ratioP1;P1;durP2;ratioP2;P2;SDS_P1;SDS_P2;PMS_P1;PMS_P2;Temp;Humidity;BMP_temperature;BMP_pressure;BME280_temperature;BME280_humidity;BME280_pressure;Samples;Min_cycle;Max_cycle;Signal;HPM_P1;HPM_P2
2021/07/06 00:00:57;;;;;;;0.50;0.50;;;;;;;;;;5034250;28;20199;-48
2021/07/06 00:03:23;;;;;;;0.63;0.60;;;;;;;;;;5032815;28;20263;-48
2021/07/06 00:05:49;;;;;;;0.60;0.60;;;;;;;;;;5033877;28;20183;-48
2021/07/06 00:08:16;;;;;;;0.60;0.60;;;;;;;;;;5034004;28;20190;-48
2021/07/06 00:10:42;;;;;;;0.68;0.68;;;;;;;;;;5034078;28;20643;-48
2021/07/06 00:13:08;;;;;;;1.30;0.70;;;;;;;;;;5034081;28;20199;-48
2021/07/06 00:15:34;;;;;;;0.57;0.57;;;;;;;;;;5034333;28;20179;-48
2021/07/06 00:18:01;;;;;;;1.15;0.80;;;;;;;;;;5033629;28;20243;-48
2021/07/06 00:20:27;;;;;;;2.20;0.65;;;;;;;;;;5019921;28;20233;-48
2021/07/06 00:22:58;;;;;;;0.50;0.50;;;;;;;;;;5033334;28;20188;-48
2021/07/06 00:25:25;;;;;;;0.65;0.65;;;;;;;;;;5034032;28;20229;-48
2021/07/06 00:27:51;;;;;;;0.80;0.60;;;;;;;;;;5033232;28;20183;-48
2021/07/06 00:30:17;;;;;;;0.60;0.60;;;;;;;;;;5034367;28;20180;-48
2021/07/06 00:32:43;;;;;;;0.70;0.65;;;;;;;;;;5033518;28;20474;-48
2021/07/06 00:35:10;;;;;;;0.55;0.52;;;;;;;;;;5028237;28;20564;-48
2021/07/06 00:37:36;;;;;;;0.68;0.60;;;;;;;;;;5030101;28;20183;-48
2021/07/06 00:40:02;;;;;;;1.33;0.63;;;;;;;;;;5034166;28;20641;-47
2021/07/06 00:42:28;;;;;;;0.70;0.70;;;;;;;;;;5033510;28;20246;-47
2021/07/06 00:44:54;;;;;;;0.63;0.63;;;;;;;;;;5033241;28;20563;-47
2021/07/06 00:47:36;;;;;;;0.70;0.70;;;;;;;;;;5033660;28;20172;-47
2021/07/06 00:50:04;;;;;;;2.45;0.70;;;;;;;;;;5034024;28;20168;-48
2021/07/06 00:52:30;;;;;;;0.70;0.70;;;;;;;;;;5021708;28;20272;-48
2021/07/06 00:54:56;;;;;;;0.60;0.60;;;;;;;;;;5018231;28;20173;-48
2021/07/06 00:57:29;;;;;;;1.27;0.93;;;;;;;;;;5035400;28;20318;-48
2021/07/06 00:59:58;;;;;;;0.60;0.60;;;;;;;;;;5037711;28;20176;-48
2021/07/06 01:02:24;;;;;;;0.82;0.60;;;;;;;;;;5037476;28;20202;-48
2021/07/06 01:04:51;;;;;;;0.85;0.50;;;;;;;;;;5037679;28;20164;-48
2021/07/06 01:07:17;;;;;;;0.73;0.70;;;;;;;;;;5036119;28;20184;-48
2021/07/06 01:09:43;;;;;;;0.85;0.60;;;;;;;;;;5037582;28;20631;-48
2021/07/06 01:12:11;;;;;;;0.60;0.60;;;;;;;;;;5035081;28;20176;-48
2021/07/06 01:14:37;;;;;;;0.63;0.57;;;;;;;;;;5035646;28;20215;-48
2021/07/06 01:17:03;;;;;;;1.80;0.85;;;;;;;;;;5036585;28;20254;-48
2021/07/06 01:19:29;;;;;;;1.85;0.60;;;;;;;;;;5037171;28;20283;-48
2021/07/06 01:21:55;;;;;;;0.70;0.57;;;;;;;;;;5036828;28;20669;-48
2021/07/06 01:24:21;;;;;;;1.73;0.68;;;;;;;;;;5037268;28;20198;-48
2021/07/06 01:26:51;;;;;;;0.60;0.60;;;;;;;;;;5035973;28;20551;-48
2021/07/06 01:29:19;;;;;;;1.30;0.70;;;;;;;;;;5035876;28;20559;-48
2021/07/06 01:31:49;;;;;;;0.68;0.60;;;;;;;;;;5036054;28;20182;-48
2021/07/06 01:34:15;;;;;;;0.77;0.60;;;;;;;;;;5036963;28;20215;-48
2021/07/06 01:36:41;;;;;;;1.10;0.70;;;;;;;;;;5036445;28;20172;-48
2021/07/06 01:39:07;;;;;;;1.45;0.60;;;;;;;;;;5036695;28;20606;-48
2021/07/06 01:41:37;;;;;;;0.63;0.63;;;;;;;;;;5036756;28;20175;-48
2021/07/06 01:44:04;;;;;;;0.60;0.60;;;;;;;;;;5032678;28;20183;-48
2021/07/06 01:46:30;;;;;;;0.70;0.70;;;;;;;;;;5016782;28;20307;-48
2021/07/06 01:48:56;;;;;;;1.40;0.60;;;;;;;;;;5016824;28;20199;-48
2021/07/06 01:51:22;;;;;;;0.95;0.93;;;;;;;;;;5024792;28;20196;-48
2021/07/06 01:53:49;;;;;;;0.75;0.70;;;;;;;;;;5022925;28;20507;-48
2021/07/06 01:56:15;;;;;;;0.65;0.52;;;;;;;;;;5028550;28;20190;-48
2021/07/06 01:58:41;;;;;;;0.80;0.80;;;;;;;;;;5036199;28;20538;-48
2021/07/06 02:01:07;;;;;;;0.52;0.52;;;;;;;;;;5036471;28;20192;-48
2021/07/06 02:03:33;;;;;;;0.40;0.40;;;;;;;;;;5034857;28;20259;-48
2021/07/06 02:05:59;;;;;;;1.13;0.60;;;;;;;;;;5035418;28;20167;-48
2021/07/06 02:08:26;;;;;;;1.70;0.75;;;;;;;;;;5036192;28;20593;-48
2021/07/06 02:10:54;;;;;;;0.50;0.50;;;;;;;;;;5035812;28;20263;-48
2021/07/06 02:13:21;;;;;;;2.10;0.70;;;;;;;;;;5035816;28;20283;-48
2021/07/06 02:15:48;;;;;;;0.90;0.90;;;;;;;;;;5034979;28;20266;-48
2021/07/06 02:18:21;;;;;;;1.38;0.60;;;;;;;;;;5035860;28;20180;-48
2021/07/06 02:20:48;;;;;;;0.57;0.55;;;;;;;;;;5025532;28;20274;-48
2021/07/06 02:23:14;;;;;;;0.60;0.60;;;;;;;;;;5035896;28;20187;-48
2021/07/06 02:25:41;;;;;;;0.65;0.65;;;;;;;;;;5035896;28;20218;-47
2021/07/06 02:28:07;;;;;;;0.70;0.70;;;;;;;;;;5035302;28;20850;-47
2021/07/06 02:30:33;;;;;;;0.65;0.60;;;;;;;;;;5036226;28;20617;-47
2021/07/06 02:32:59;;;;;;;1.73;0.77;;;;;;;;;;5035280;28;20200;-47
2021/07/06 02:35:28;;;;;;;0.80;0.80;;;;;;;;;;5029122;28;20176;-47
2021/07/06 02:38:01;;;;;;;1.00;0.70;;;;;;;;;;5028718;28;20438;-47
2021/07/06 02:40:28;;;;;;;0.50;0.50;;;;;;;;;;5035657;28;20234;-47
2021/07/06 02:42:54;;;;;;;1.20;0.65;;;;;;;;;;5035169;28;20184;-47
2021/07/06 02:45:20;;;;;;;0.70;0.65;;;;;;;;;;5036048;28;20200;-47
2021/07/06 02:47:47;;;;;;;0.60;0.60;;;;;;;;;;5021950;28;20490;-47
2021/07/06 02:50:14;;;;;;;0.70;0.70;;;;;;;;;;5024750;28;20238;-47
2021/07/06 02:52:40;;;;;;;0.93;0.65;;;;;;;;;;5034962;28;20238;-47
2021/07/06 02:55:06;;;;;;;1.02;0.60;;;;;;;;;;5034960;28;20204;-47
2021/07/06 02:57:42;;;;;;;1.70;0.77;;;;;;;;;;5034832;28;20179;-47
2021/07/06 03:00:08;;;;;;;1.45;0.77;;;;;;;;;;5034667;28;20493;-47
2021/07/06 03:02:34;;;;;;;1.17;0.70;;;;;;;;;;5035596;28;20195;-47
2021/07/06 03:05:00;;;;;;;0.70;0.52;;;;;;;;;;5035300;28;20270;-47
2021/07/06 03:07:26;;;;;;;2.45;0.90;;;;;;;;;;5034259;28;20617;-47
2021/07/06 03:09:52;;;;;;;1.70;0.70;;;;;;;;;;5034003;28;20192;-47
2021/07/06 03:12:18;;;;;;;0.98;0.88;;;;;;;;;;5033988;28;20184;-47
2021/07/06 03:14:44;;;;;;;0.65;0.65;;;;;;;;;;5034493;28;20211;-47
2021/07/06 03:17:10;;;;;;;0.73;0.70;;;;;;;;;;5034480;28;20164;-47
2021/07/06 03:19:36;;;;;;;0.98;0.60;;;;;;;;;;5035528;28;20784;-47
2021/07/06 03:22:02;;;;;;;1.15;0.63;;;;;;;;;;5034159;28;20222;-47
2021/07/06 03:24:28;;;;;;;0.70;0.70;;;;;;;;;;5034572;28;20191;-47
2021/07/06 03:26:54;;;;;;;1.15;0.75;;;;;;;;;;5033776;28;20179;-47
2021/07/06 03:29:20;;;;;;;1.20;0.80;;;;;;;;;;5034603;28;20183;-47
2021/07/06 03:31:46;;;;;;;0.88;0.82;;;;;;;;;;5035150;28;20587;-47
2021/07/06 03:34:12;;;;;;;1.10;0.75;;;;;;;;;;5034987;28;20206;-48
2021/07/06 03:36:38;;;;;;;0.60;0.60;;;;;;;;;;5030819;28;20191;-47
2021/07/06 03:39:04;;;;;;;0.90;0.73;;;;;;;;;;5022495;28;20183;-47
2021/07/06 03:41:30;;;;;;;1.27;0.57;;;;;;;;;;5033556;28;20172;-47
2021/07/06 03:43:56;;;;;;;1.10;0.80;;;;;;;;;;5034936;28;20168;-47
2021/07/06 03:46:24;;;;;;;0.68;0.68;;;;;;;;;;5034122;28;20175;-47
2021/07/06 03:48:52;;;;;;;0.70;0.70;;;;;;;;;;5031474;28;20207;-47
2021/07/06 03:51:18;;;;;;;1.23;0.88;;;;;;;;;;5033624;28;20290;-47
2021/07/06 03:53:44;;;;;;;3.92;1.38;;;;;;;;;;5035526;28;20294;-47
2021/07/06 03:56:10;;;;;;;4.63;1.60;;;;;;;;;;5040515;28;20183;-47
2021/07/06 03:58:36;;;;;;;5.25;1.77;;;;;;;;;;5033201;28;20194;-47
2021/07/06 04:01:02;;;;;;;6.05;2.53;;;;;;;;;;5034333;28;20267;-47
2021/07/06 04:03:28;;;;;;;11.05;2.70;;;;;;;;;;5024014;28;20583;-47
2021/07/06 04:05:54;;;;;;;28.80;6.50;;;;;;;;;;5013726;28;20513;-47
2021/07/06 04:08:20;;;;;;;16.20;4.57;;;;;;;;;;5027703;28;20203;-47
2021/07/06 04:10:46;;;;;;;15.20;4.20;;;;;;;;;;5033296;28;20761;-47
2021/07/06 04:13:12;;;;;;;16.25;5.15;;;;;;;;;;5032709;28;20208;-47
2021/07/06 04:15:38;;;;;;;23.92;5.68;;;;;;;;;;5031983;28;20199;-47
2021/07/06 04:18:04;;;;;;;16.40;4.25;;;;;;;;;;5011930;28;20201;-48
2021/07/06 04:20:32;;;;;;;14.15;4.35;;;;;;;;;;5013445;28;20177;-47
2021/07/06 04:22:58;;;;;;;16.00;4.82;;;;;;;;;;5014710;28;20175;-47
2021/07/06 04:25:25;;;;;;;11.98;3.83;;;;;;;;;;5022847;28;20249;-47
2021/07/06 04:27:54;;;;;;;9.35;2.90;;;;;;;;;;5037400;28;20497;-47
2021/07/06 04:30:20;;;;;;;4.88;2.65;;;;;;;;;;5037206;28;20207;-47
2021/07/06 04:32:46;;;;;;;6.00;2.50;;;;;;;;;;5037984;28;20203;-48
2021/07/06 04:35:13;;;;;;;5.40;2.03;;;;;;;;;;5038211;28;20168;-48
2021/07/06 04:37:40;;;;;;;7.38;2.45;;;;;;;;;;5036779;28;20184;-48
2021/07/06 04:40:06;;;;;;;6.88;1.92;;;;;;;;;;5036471;28;20172;-47
2021/07/06 04:42:33;;;;;;;5.95;2.33;;;;;;;;;;5037306;28;20202;-47
2021/07/06 04:44:59;;;;;;;3.72;2.05;;;;;;;;;;5018218;28;20212;-47
2021/07/06 04:47:25;;;;;;;8.48;2.17;;;;;;;;;;5017887;28;20180;-47
2021/07/06 04:49:51;;;;;;;4.82;2.05;;;;;;;;;;5037227;28;20186;-47
2021/07/06 04:52:17;;;;;;;10.38;2.60;;;;;;;;;;5041030;28;20483;-48
2021/07/06 04:54:44;;;;;;;3.70;1.63;;;;;;;;;;5037208;28;20207;-48
2021/07/06 04:57:10;;;;;;;4.50;1.58;;;;;;;;;;5027730;28;20478;-48
2021/07/06 04:59:36;;;;;;;4.40;1.60;;;;;;;;;;5020875;28;20187;-48
2021/07/06 05:02:04;;;;;;;1.85;1.20;;;;;;;;;;5036875;28;20176;-48
2021/07/06 05:04:30;;;;;;;1.20;1.00;;;;;;;;;;5037275;28;20186;-48
2021/07/06 05:06:56;;;;;;;0.93;0.90;;;;;;;;;;5036863;28;20180;-48
2021/07/06 05:09:22;;;;;;;1.98;0.90;;;;;;;;;;5037445;28;20241;-48
2021/07/06 05:11:48;;;;;;;1.10;0.95;;;;;;;;;;5025390;28;20249;-48
2021/07/06 05:14:14;;;;;;;1.67;0.90;;;;;;;;;;5037044;28;20199;-47
2021/07/06 05:16:40;;;;;;;1.48;0.82;;;;;;;;;;5036124;28;20547;-47
2021/07/06 05:19:06;;;;;;;1.83;0.90;;;;;;;;;;5036527;28;20176;-47
2021/07/06 05:21:32;;;;;;;1.08;0.90;;;;;;;;;;5036807;28;20191;-47
2021/07/06 05:23:58;;;;;;;1.13;1.00;;;;;;;;;;5028704;28;20587;-47
2021/07/06 05:26:24;;;;;;;0.98;0.80;;;;;;;;;;5030038;28;20270;-47
2021/07/06 05:28:50;;;;;;;0.93;0.82;;;;;;;;;;5026078;28;20259;-47
2021/07/06 05:31:16;;;;;;;1.20;0.90;;;;;;;;;;5032925;28;20274;-47
2021/07/06 05:33:42;;;;;;;1.80;0.90;;;;;;;;;;5036789;28;20203;-47
2021/07/06 05:36:08;;;;;;;1.27;0.80;;;;;;;;;;5036801;28;20168;-47
2021/07/06 05:38:34;;;;;;;1.77;0.95;;;;;;;;;;5025540;28;20180;-47
2021/07/06 05:41:02;;;;;;;0.95;0.80;;;;;;;;;;5036941;28;20539;-48
2021/07/06 05:43:28;;;;;;;2.97;1.00;;;;;;;;;;5036460;28;20191;-47
2021/07/06 05:45:55;;;;;;;0.90;0.90;;;;;;;;;;5036085;28;20184;-47
2021/07/06 05:48:21;;;;;;;0.88;0.88;;;;;;;;;;5036481;28;20192;-47
2021/07/06 05:50:47;;;;;;;1.00;1.00;;;;;;;;;;5029232;28;20259;-47
2021/07/06 05:53:13;;;;;;;2.40;0.90;;;;;;;;;;5031306;28;20239;-47
2021/07/06 05:55:40;;;;;;;0.77;0.70;;;;;;;;;;5036308;28;20250;-48
2021/07/06 05:58:06;;;;;;;0.80;0.80;;;;;;;;;;5036069;28;20179;-48
2021/07/06 06:00:33;;;;;;;1.02;0.93;;;;;;;;;;5036491;28;20726;-48
2021/07/06 06:02:59;;;;;;;1.55;1.00;;;;;;;;;;5036268;28;20176;-48
2021/07/06 06:05:25;;;;;;;1.38;0.82;;;;;;;;;;5035838;28;20606;-48
2021/07/06 06:07:51;;;;;;;0.95;0.95;;;;;;;;;;5035717;28;20203;-48
2021/07/06 06:10:17;;;;;;;1.35;0.80;;;;;;;;;;5035964;28;20552;-48
2021/07/06 06:12:43;;;;;;;2.47;0.90;;;;;;;;;;5035673;28;20230;-47
2021/07/06 06:15:10;;;;;;;0.93;0.82;;;;;;;;;;5036188;28;20611;-47
2021/07/06 06:17:36;;;;;;;0.90;0.90;;;;;;;;;;5032705;28;20428;-47
2021/07/06 06:20:06;;;;;;;1.95;0.95;;;;;;;;;;5035903;28;20203;-47
2021/07/06 06:22:33;;;;;;;0.70;0.70;;;;;;;;;;5036255;28;20172;-47
2021/07/06 06:24:59;;;;;;;1.45;1.08;;;;;;;;;;5035472;28;20226;-47
2021/07/06 06:27:25;;;;;;;1.55;1.00;;;;;;;;;;5032443;28;20184;-47
2021/07/06 06:29:51;;;;;;;0.90;0.90;;;;;;;;;;5035000;28;20563;-47
2021/07/06 06:32:17;;;;;;;2.20;0.80;;;;;;;;;;5034572;28;20168;-48
2021/07/06 06:34:43;;;;;;;1.75;1.02;;;;;;;;;;5034259;28;20463;-48
2021/07/06 06:37:10;;;;;;;2.58;1.20;;;;;;;;;;5033563;28;20194;-48
2021/07/06 06:39:36;;;;;;;1.60;0.70;;;;;;;;;;5033504;28;20250;-48
2021/07/06 06:42:02;;;;;;;1.65;1.13;;;;;;;;;;5034057;28;20671;-48
2021/07/06 06:44:28;;;;;;;0.70;0.70;;;;;;;;;;5034569;28;20168;-48
2021/07/06 06:46:54;;;;;;;1.77;1.08;;;;;;;;;;5034834;28;20547;-48
2021/07/06 06:49:20;;;;;;;1.75;1.00;;;;;;;;;;5035481;28;20172;-48
2021/07/06 06:51:46;;;;;;;0.80;0.80;;;;;;;;;;5035655;28;20257;-48
2021/07/06 06:54:12;;;;;;;1.00;0.90;;;;;;;;;;5020705;28;20208;-48
2021/07/06 06:56:41;;;;;;;0.85;0.80;;;;;;;;;;5024820;28;20176;-48
2021/07/06 06:59:08;;;;;;;3.75;0.80;;;;;;;;;;5035277;28;20172;-48
2021/07/06 07:01:34;;;;;;;1.48;0.80;;;;;;;;;;5035709;28;20539;-48
2021/07/06 07:04:00;;;;;;;2.15;0.80;;;;;;;;;;5035268;28;20209;-48
2021/07/06 07:06:26;;;;;;;3.55;0.88;;;;;;;;;;5030179;28;20555;-48
2021/07/06 07:08:52;;;;;;;0.80;0.80;;;;;;;;;;5015633;28;20165;-48
2021/07/06 07:11:18;;;;;;;1.15;0.90;;;;;;;;;;5022714;28;20850;-48
2021/07/06 07:13:44;;;;;;;0.90;0.77;;;;;;;;;;5035248;28;20195;-48
2021/07/06 07:16:10;;;;;;;1.52;0.80;;;;;;;;;;5034770;28;20293;-48
2021/07/06 07:18:36;;;;;;;1.73;0.90;;;;;;;;;;5034951;28;20160;-48
2021/07/06 07:21:02;;;;;;;1.27;0.93;;;;;;;;;;5034484;28;20191;-48
2021/07/06 07:23:28;;;;;;;0.90;0.90;;;;;;;;;;5035215;28;20164;-48
2021/07/06 07:25:54;;;;;;;1.05;0.80;;;;;;;;;;5033632;28;20454;-48
2021/07/06 07:28:20;;;;;;;1.15;0.88;;;;;;;;;;5035072;28;20258;-48
2021/07/06 07:30:46;;;;;;;1.70;0.88;;;;;;;;;;5035167;28;20251;-48
2021/07/06 07:33:12;;;;;;;0.80;0.80;;;;;;;;;;5034844;28;20578;-48
2021/07/06 07:35:38;;;;;;;1.83;0.80;;;;;;;;;;5033513;28;20242;-48
2021/07/06 07:38:05;;;;;;;2.60;1.02;;;;;;;;;;5025060;28;20164;-48
2021/07/06 07:40:31;;;;;;;1.13;0.88;;;;;;;;;;5015039;28;20176;-48
2021/07/06 07:42:57;;;;;;;1.48;1.00;;;;;;;;;;5015093;28;20179;-48
2021/07/06 07:45:23;;;;;;;2.47;1.00;;;;;;;;;;5015005;28;20168;-48
2021/07/06 07:47:49;;;;;;;1.00;0.70;;;;;;;;;;5014459;28;20275;-48
2021/07/06 07:50:15;;;;;;;1.15;0.82;;;;;;;;;;5014971;28;20263;-48
2021/07/06 07:52:41;;;;;;;1.63;0.77;;;;;;;;;;5028357;28;20184;-48
2021/07/06 07:55:07;;;;;;;1.58;0.70;;;;;;;;;;5034608;28;20172;-48
2021/07/06 07:57:34;;;;;;;1.00;0.90;;;;;;;;;;5034297;28;20408;-48
2021/07/06 08:00:00;;;;;;;0.95;0.82;;;;;;;;;;5034201;28;20222;-48
2021/07/06 08:02:26;;;;;;;1.00;1.00;;;;;;;;;;5034519;28;20167;-48
2021/07/06 08:04:52;;;;;;;1.15;0.77;;;;;;;;;;5034535;28;20233;-47
2021/07/06 08:07:19;;;;;;;1.60;0.80;;;;;;;;;;5029176;28;20259;-47
2021/07/06 08:09:45;;;;;;;0.80;0.80;;;;;;;;;;5014731;28;20568;-47
2021/07/06 08:12:11;;;;;;;2.35;0.90;;;;;;;;;;5029516;28;20180;-47
2021/07/06 08:14:37;;;;;;;1.02;0.93;;;;;;;;;;5034500;28;20217;-47
2021/07/06 08:17:04;;;;;;;1.92;0.88;;;;;;;;;;5034165;28;20176;-47
2021/07/06 08:19:31;;;;;;;1.80;0.75;;;;;;;;;;5034474;28;20164;-47
2021/07/06 08:21:57;;;;;;;0.90;0.90;;;;;;;;;;5034191;28;20550;-47
2021/07/06 08:24:23;;;;;;;2.22;0.88;;;;;;;;;;5017684;28;20463;-47
2021/07/06 08:26:49;;;;;;;1.00;0.90;;;;;;;;;;5014319;28;20176;-47
2021/07/06 08:29:16;;;;;;;1.67;0.82;;;;;;;;;;5014500;28;20255;-47
2021/07/06 08:31:42;;;;;;;1.77;0.80;;;;;;;;;;5023268;28;20311;-47
2021/07/06 08:34:08;;;;;;;1.92;0.90;;;;;;;;;;5034333;28;20195;-47
2021/07/06 08:36:34;;;;;;;1.85;0.80;;;;;;;;;;5033582;28;20243;-47
2021/07/06 08:39:01;;;;;;;0.80;0.80;;;;;;;;;;5032483;28;20271;-47
2021/07/06 08:41:27;;;;;;;0.95;0.93;;;;;;;;;;5034241;28;20247;-47
2021/07/06 08:43:53;;;;;;;2.00;0.70;;;;;;;;;;5034120;28;20191;-47
2021/07/06 08:46:20;;;;;;;0.85;0.73;;;;;;;;;;5033885;28;20214;-47
2021/07/06 08:48:47;;;;;;;1.10;0.85;;;;;;;;;;5034170;28;20186;-47
2021/07/06 08:51:16;;;;;;;2.38;0.85;;;;;;;;;;5033600;28;20171;-47
2021/07/06 08:53:42;;;;;;;0.90;0.60;;;;;;;;;;5033989;28;20196;-47
2021/07/06 08:56:08;;;;;;;2.00;0.63;;;;;;;;;;5022954;28;20245;-48
2021/07/06 08:58:34;;;;;;;1.05;0.70;;;;;;;;;;5033074;28;20199;-48
2021/07/06 09:01:00;;;;;;;1.55;0.90;;;;;;;;;;5032373;28;20207;-48
2021/07/06 09:03:26;;;;;;;0.73;0.73;;;;;;;;;;5032319;28;20210;-48
2021/07/06 09:06:11;;;;;;;1.80;0.77;;;;;;;;;;5032535;28;20188;-48
2021/07/06 09:08:37;;;;;;;2.25;0.80;;;;;;;;;;5033017;28;20172;-48
2021/07/06 09:11:13;;;;;;;1.45;0.85;;;;;;;;;;5030810;28;20191;-48
2021/07/06 09:13:39;;;;;;;1.10;0.70;;;;;;;;;;5036007;28;20298;-48
2021/07/06 09:16:05;;;;;;;2.15;1.00;;;;;;;;;;5036016;28;20195;-48
2021/07/06 09:18:32;;;;;;;0.93;0.70;;;;;;;;;;5036881;28;20225;-47
2021/07/06 09:21:07;;;;;;;2.95;0.85;;;;;;;;;;5034408;28;20176;-47
2021/07/06 09:23:34;;;;;;;1.73;0.80;;;;;;;;;;5036924;28;20167;-48
2021/07/06 09:26:03;;;;;;;5.53;1.75;;;;;;;;;;5035052;28;20571;-48
2021/07/06 09:28:31;;;;;;;6.80;2.83;;;;;;;;;;5035407;28;20235;-48
2021/07/06 09:30:59;;;;;;;5.00;1.98;;;;;;;;;;5035770;28;20345;-48
2021/07/06 09:33:26;;;;;;;3.53;1.20;;;;;;;;;;5036504;28;20194;-48
2021/07/06 09:35:52;;;;;;;1.42;1.15;;;;;;;;;;5036122;28;20655;-48
2021/07/06 09:38:18;;;;;;;0.57;0.57;;;;;;;;;;5035873;28;20180;-48
2021/07/06 09:40:51;;;;;;;0.88;0.82;;;;;;;;;;5038746;28;20284;-48
2021/07/06 09:43:20;;;;;;;0.73;0.70;;;;;;;;;;5034453;28;20233;-48
2021/07/06 09:46:08;;;;;;;1.10;0.70;;;;;;;;;;5036048;28;20184;-48
2021/07/06 09:48:35;;;;;;;1.20;0.70;;;;;;;;;;5036305;28;20660;-48
2021/07/06 09:51:20;;;;;;;0.75;0.75;;;;;;;;;;5036655;28;20179;-48
2021/07/06 09:53:53;;;;;;;0.85;0.70;;;;;;;;;;5035827;28;20287;-48
2021/07/06 09:56:22;;;;;;;2.00;1.00;;;;;;;;;;5036197;28;20180;-48
2021/07/06 09:59:03;;;;;;;0.98;0.70;;;;;;;;;;5025214;28;20183;-48
2021/07/06 10:01:29;;;;;;;0.75;0.70;;;;;;;;;;5036408;28;20581;-48
2021/07/06 10:03:56;;;;;;;1.67;0.70;;;;;;;;;;5036248;28;20180;-48
2021/07/06 10:06:26;;;;;;;1.48;0.80;;;;;;;;;;5035958;28;20172;-48
2021/07/06 10:08:53;;;;;;;1.67;0.63;;;;;;;;;;5035958;28;20179;-48
2021/07/06 10:11:20;;;;;;;3.63;1.25;;;;;;;;;;5036047;28;20287;-47
2021/07/06 10:13:47;;;;;;;0.60;0.60;;;;;;;;;;5034616;28;20578;-48
2021/07/06 10:16:16;;;;;;;0.60;0.60;;;;;;;;;;5028988;28;20440;-48
2021/07/06 10:18:42;;;;;;;0.70;0.70;;;;;;;;;;5035264;28;20447;-48
2021/07/06 10:21:08;;;;;;;0.75;0.75;;;;;;;;;;5036379;28;20472;-48
2021/07/06 10:23:35;;;;;;;0.95;0.70;;;;;;;;;;5035556;28;20180;-48
2021/07/06 10:26:02;;;;;;;0.70;0.70;;;;;;;;;;5035481;28;20567;-48
2021/07/06 10:28:29;;;;;;;0.70;0.70;;;;;;;;;;5035766;28;20225;-48
2021/07/06 10:30:55;;;;;;;0.60;0.60;;;;;;;;;;5034317;28;20524;-48
2021/07/06 10:33:24;;;;;;;0.63;0.63;;;;;;;;;;5026835;28;20618;-48
2021/07/06 10:35:50;;;;;;;0.70;0.70;;;;;;;;;;5015856;28;20161;-48
2021/07/06 10:38:29;;;;;;;1.75;0.63;;;;;;;;;;5034294;28;20559;-48
2021/07/06 10:40:55;;;;;;;1.45;0.60;;;;;;;;;;5035160;28;20180;-48
2021/07/06 10:43:34;;;;;;;1.73;0.75;;;;;;;;;;5035219;28;20311;-48
2021/07/06 10:46:12;;;;;;;1.48;0.63;;;;;;;;;;5032877;28;20200;-48
2021/07/06 10:48:42;;;;;;;0.80;0.80;;;;;;;;;;5035277;28;20191;-48
2021/07/06 10:51:09;;;;;;;0.98;0.65;;;;;;;;;;5035350;28;20180;-48
2021/07/06 10:53:35;;;;;;;1.83;0.60;;;;;;;;;;5034820;28;20199;-48
2021/07/06 10:56:06;;;;;;;0.63;0.63;;;;;;;;;;5034465;28;20179;-48
2021/07/06 10:58:49;;;;;;;0.60;0.60;;;;;;;;;;5034845;28;20172;-48
2021/07/06 11:01:47;;;;;;;0.65;0.65;;;;;;;;;;5035065;28;20167;-48
2021/07/06 11:04:32;;;;;;;0.73;0.73;;;;;;;;;;5033522;28;20208;-48
2021/07/06 11:06:58;;;;;;;1.33;0.80;;;;;;;;;;5034246;28;20207;-48
2021/07/06 11:09:32;;;;;;;1.55;0.73;;;;;;;;;;5034922;28;20206;-48
2021/07/06 11:12:17;;;;;;;2.08;0.98;;;;;;;;;;5035359;28;20555;-48
2021/07/06 11:14:46;;;;;;;0.93;0.73;;;;;;;;;;5035125;28;20203;-49
2021/07/06 11:17:12;;;;;;;0.68;0.68;;;;;;;;;;5034201;28;20207;-48
2021/07/06 11:19:39;;;;;;;1.10;0.60;;;;;;;;;;5034145;28;20211;-48
2021/07/06 11:22:12;;;;;;;0.55;0.55;;;;;;;;;;5035408;28;20198;-48
2021/07/06 11:24:42;;;;;;;0.68;0.50;;;;;;;;;;5035224;28;20519;-48
2021/07/06 11:27:08;;;;;;;1.50;0.70;;;;;;;;;;5050643;28;20598;-48
2021/07/06 11:29:35;;;;;;;0.70;0.70;;;;;;;;;;5049597;28;20448;-48
2021/07/06 11:32:15;;;;;;;0.70;0.70;;;;;;;;;;5035162;28;20172;-47
2021/07/06 11:34:41;;;;;;;1.27;0.77;;;;;;;;;;5029838;28;20222;-48
2021/07/06 11:37:17;;;;;;;0.73;0.73;;;;;;;;;;5034146;28;20212;-48
2021/07/06 11:39:43;;;;;;;1.77;0.90;;;;;;;;;;5034819;28;20614;-48
2021/07/06 11:42:10;;;;;;;1.50;0.80;;;;;;;;;;5034259;28;20172;-48
2021/07/06 11:44:36;;;;;;;1.67;0.70;;;;;;;;;;5020039;28;20214;-48
2021/07/06 11:47:12;;;;;;;1.27;0.90;;;;;;;;;;5034302;28;20215;-48
2021/07/06 11:49:39;;;;;;;2.00;0.65;;;;;;;;;;5033885;28;20179;-49
2021/07/06 11:52:05;;;;;;;0.80;0.80;;;;;;;;;;5015016;28;20184;-48
2021/07/06 11:54:32;;;;;;;0.90;0.90;;;;;;;;;;5031392;28;20808;-48
2021/07/06 11:57:09;;;;;;;1.85;0.80;;;;;;;;;;5033966;28;20219;-48
2021/07/06 11:59:36;;;;;;;0.85;0.70;;;;;;;;;;5034596;28;20178;-48
2021/07/06 12:02:06;;;;;;;3.20;0.80;;;;;;;;;;5034547;28;20164;-48
2021/07/06 12:04:32;;;;;;;0.80;0.80;;;;;;;;;;5034040;28;20817;-48
2021/07/06 12:07:05;;;;;;;1.02;0.90;;;;;;;;;;5024898;28;20186;-48
2021/07/06 12:09:31;;;;;;;2.05;0.88;;;;;;;;;;5034478;28;20271;-48
2021/07/06 12:12:26;;;;;;;1.95;0.88;;;;;;;;;;5034312;28;20183;-48
2021/07/06 12:14:52;;;;;;;1.67;0.70;;;;;;;;;;5018495;28;20629;-48
2021/07/06 12:17:25;;;;;;;0.65;0.65;;;;;;;;;;5021858;28;20257;-48
2021/07/06 12:19:51;;;;;;;1.85;0.80;;;;;;;;;;5034143;28;20192;-48
2021/07/06 12:22:20;;;;;;;0.73;0.70;;;;;;;;;;5024397;28;20195;-49
2021/07/06 12:24:46;;;;;;;0.70;0.70;;;;;;;;;;5014703;28;20179;-48
2021/07/06 12:27:15;;;;;;;1.70;1.00;;;;;;;;;;5014055;28;20187;-48
2021/07/06 12:29:41;;;;;;;2.03;0.85;;;;;;;;;;5029319;28;20268;-48
2021/07/06 12:32:12;;;;;;;0.60;0.60;;;;;;;;;;5033756;28;20184;-48
2021/07/06 12:34:39;;;;;;;1.52;0.90;;;;;;;;;;5034290;28;20191;-48
2021/07/06 12:37:05;;;;;;;0.82;0.73;;;;;;;;;;5032366;28;20191;-48
2021/07/06 12:39:36;;;;;;;0.73;0.70;;;;;;;;;;5033800;28;20468;-48
2021/07/06 12:42:06;;;;;;;1.58;1.00;;;;;;;;;;5034054;28;20235;-48
2021/07/06 12:44:45;;;;;;;0.70;0.70;;;;;;;;;;5032920;28;20187;-48
2021/07/06 12:47:12;;;;;;;0.60;0.60;;;;;;;;;;5035288;28;20677;-48
2021/07/06 12:49:39;;;;;;;0.98;0.90;;;;;;;;;;5037998;28;20484;-48
2021/07/06 12:52:06;;;;;;;1.02;0.70;;;;;;;;;;5037852;28;20211;-48
2021/07/06 12:54:36;;;;;;;1.40;0.68;;;;;;;;;;5030937;28;20210;-48
2021/07/06 12:57:03;;;;;;;0.80;0.80;;;;;;;;;;5036705;28;20542;-48
2021/07/06 12:59:30;;;;;;;1.80;0.85;;;;;;;;;;5037324;28;20186;-48
2021/07/06 13:01:57;;;;;;;1.10;0.70;;;;;;;;;;5031294;28;20177;-48
2021/07/06 13:04:23;;;;;;;1.40;1.00;;;;;;;;;;5037030;28;20192;-48
2021/07/06 13:06:50;;;;;;;0.80;0.80;;;;;;;;;;5036035;28;20204;-49
2021/07/06 13:09:28;;;;;;;0.80;0.80;;;;;;;;;;5035929;28;20218;-49
2021/07/06 13:11:54;;;;;;;0.80;0.80;;;;;;;;;;5030255;28;20183;-49
2021/07/06 13:14:22;;;;;;;0.85;0.85;;;;;;;;;;5036413;28;20210;-49
2021/07/06 13:16:49;;;;;;;0.82;0.82;;;;;;;;;;5036294;28;20180;-49
2021/07/06 13:19:21;;;;;;;1.20;0.85;;;;;;;;;;5034926;28;20198;-49
2021/07/06 13:21:48;;;;;;;0.80;0.80;;;;;;;;;;5036998;28;20195;-49
2021/07/06 13:24:14;;;;;;;1.23;0.70;;;;;;;;;;5041714;28;20206;-49
2021/07/06 13:26:40;;;;;;;0.93;0.93;;;;;;;;;;5038990;28;20577;-49
2021/07/06 13:29:06;;;;;;;0.82;0.80;;;;;;;;;;5036584;28;20184;-49
2021/07/06 13:31:32;;;;;;;1.85;0.90;;;;;;;;;;5037028;28;20229;-49
2021/07/06 13:33:58;;;;;;;4.45;0.90;;;;;;;;;;5037002;28;20243;-49
2021/07/06 13:36:25;;;;;;;8.82;1.70;;;;;;;;;;5038035;28;20503;-48
2021/07/06 13:38:51;;;;;;;3.75;1.10;;;;;;;;;;5035277;28;20187;-48
2021/07/06 13:41:17;;;;;;;3.25;1.20;;;;;;;;;;5033142;28;20187;-48
2021/07/06 13:43:43;;;;;;;7.25;1.10;;;;;;;;;;5027885;28;20238;-48
2021/07/06 13:46:09;;;;;;;3.33;1.42;;;;;;;;;;5033332;28;20614;-48
2021/07/06 13:48:35;;;;;;;4.47;1.10;;;;;;;;;;5035076;28;20194;-48
2021/07/06 13:51:01;;;;;;;3.70;1.40;;;;;;;;;;5034694;28;20167;-48
2021/07/06 13:53:28;;;;;;;4.47;1.20;;;;;;;;;;5034883;28;20231;-48
2021/07/06 13:55:56;;;;;;;3.72;1.20;;;;;;;;;;5035620;28;20471;-48
2021/07/06 13:58:22;;;;;;;3.60;1.17;;;;;;;;;;5034375;28;20172;-48
2021/07/06 14:00:48;;;;;;;4.18;1.00;;;;;;;;;;5036678;28;20175;-48
2021/07/06 14:03:14;;;;;;;3.97;1.40;;;;;;;;;;5036006;28;20226;-48
2021/07/06 14:05:41;;;;;;;4.80;1.13;;;;;;;;;;5036294;28;20578;-48
2021/07/06 14:08:08;;;;;;;2.35;1.15;;;;;;;;;;5035941;28;20193;-48
2021/07/06 14:10:34;;;;;;;2.85;0.95;;;;;;;;;;5035942;28;20511;-48
2021/07/06 14:13:00;;;;;;;3.13;1.23;;;;;;;;;;5036156;28;20250;-48
2021/07/06 14:15:26;;;;;;;1.77;1.10;;;;;;;;;;5020063;28;20231;-48
2021/07/06 14:17:52;;;;;;;2.00;1.10;;;;;;;;;;5033067;28;20257;-48
2021/07/06 14:20:18;;;;;;;1.20;0.80;;;;;;;;;;5036088;28;20171;-49
2021/07/06 14:22:44;;;;;;;4.22;1.40;;;;;;;;;;5036148;28;20627;-48
2021/07/06 14:25:11;;;;;;;1.80;1.10;;;;;;;;;;5035816;28;20187;-48
2021/07/06 14:27:37;;;;;;;1.15;1.00;;;;;;;;;;5035731;28;20255;-48
2021/07/06 14:30:04;;;;;;;1.73;1.13;;;;;;;;;;5030003;28;20185;-48
2021/07/06 14:32:37;;;;;;;1.27;1.10;;;;;;;;;;5034561;28;20186;-48
2021/07/06 14:35:04;;;;;;;1.45;1.00;;;;;;;;;;5034508;28;20195;-48
2021/07/06 14:37:30;;;;;;;2.58;1.23;;;;;;;;;;5035603;28;20180;-48
2021/07/06 14:39:56;;;;;;;1.35;1.13;;;;;;;;;;5035850;28;20550;-48
2021/07/06 14:42:22;;;;;;;2.30;1.00;;;;;;;;;;5035972;28;20176;-48
2021/07/06 14:44:48;;;;;;;2.67;1.27;;;;;;;;;;5035220;28;20196;-48